Time;durP1;ratioP1;P1;durP2;ratioP2;P2;SDS_P1;SDS_P2;PMS_P1;PMS_P2;Temp;Humidity;BMP_temperature;BMP_pressure;BME280_temperature;BME280_humidity;BME280_pressure;Samples;Min_cycle;Max_cycle;Signal;HPM_P1;HPM_P2
2023/08/03 00:05:23;;;;;;;2.58;0.90;;;22.50;99.90;;;;;;1942195;72;22110;-79
2023/08/03 00:10:54;;;;;;;1.20;0.90;;;22.40;99.90;;;;;;1939663;72;22232;-79
2023/08/03 00:16:25;;;;;;;1.47;0.90;;;22.40;99.90;;;;;;1926671;72;22319;-80
2023/08/03 00:21:57;;;;;;;1.82;1.00;;;22.30;99.90;;;;;;1946940;72;22286;-80
2023/08/03 00:24:49;;;;;;;1.17;0.90;;;22.30;99.90;;;;;;1904195;75;21564;-80
2023/08/03 00:27:40;;;;;;;1.50;1.00;;;22.30;99.90;;;;;;1902856;75;21131;-80
2023/08/03 00:30:32;;;;;;;1.52;0.95;;;22.40;99.90;;;;;;1884325;75;21549;-81
2023/08/03 00:33:26;;;;;;;1.65;1.00;;;22.50;99.90;;;;;;1886543;75;21110;-81
2023/08/03 00:36:19;;;;;;;1.15;1.05;;;22.50;99.90;;;;;;1908240;75;21195;-80
2023/08/03 00:39:10;;;;;;;1.67;1.30;;;22.50;99.90;;;;;;1909986;74;21067;-80
2023/08/03 00:42:02;;;;;;;1.30;1.20;;;22.50;99.90;;;;;;1884599;75;21097;-81
2023/08/03 00:44:54;;;;;;;2.37;1.10;;;22.60;99.90;;;;;;1891453;75;21066;-80
2023/08/03 00:47:45;;;;;;;1.30;0.98;;;22.50;99.90;;;;;;1892477;75;21110;-81
2023/08/03 00:50:37;;;;;;;2.52;0.80;;;22.40;99.90;;;;;;1898485;75;21140;-82
2023/08/03 00:53:30;;;;;;;2.90;1.00;;;22.20;99.90;;;;;;1908235;75;21157;-80
2023/08/03 00:56:21;;;;;;;3.25;1.07;;;22.00;99.90;;;;;;1880733;75;21105;-81
2023/08/03 00:59:13;;;;;;;2.02;1.05;;;21.90;99.90;;;;;;1907743;75;21132;-81
2023/08/03 01:02:04;;;;;;;1.27;0.90;;;21.80;99.90;;;;;;1848722;76;21108;-80
2023/08/03 01:04:55;;;;;;;1.60;0.98;;;21.90;99.90;;;;;;1854568;76;21142;-80
2023/08/03 01:10:25;;;;;;;1.15;0.90;;;21.80;99.90;;;;;;1943394;72;22217;-79
2023/08/03 01:16:06;;;;;;;1.27;0.82;;;21.80;99.90;;;;;;1937699;72;22197;-80
2023/08/03 01:21:38;;;;;;;1.50;1.10;;;21.80;99.90;;;;;;1951991;72;22161;-79
2023/08/03 01:24:29;;;;;;;1.82;1.30;;;21.80;99.90;;;;;;1918479;73;21113;-79
2023/08/03 01:30:00;;;;;;;1.02;0.70;;;21.90;99.90;;;;;;1939605;72;22216;-79
2023/08/03 01:35:30;;;;;;;1.77;1.05;;;21.90;99.90;;;;;;1945055;72;23340;-80
2023/08/03 01:38:21;;;;;;;2.92;0.93;;;21.80;99.90;;;;;;1925675;73;21098;-80
2023/08/03 01:41:12;;;;;;;0.82;0.70;;;21.80;99.90;;;;;;1918455;73;21138;-80
2023/08/03 01:44:34;;;;;;;1.62;1.10;;;21.90;99.90;;;;;;1930146;73;21132;-79
2023/08/03 01:47:25;;;;;;;2.95;0.93;;;22.00;99.90;;;;;;1926214;73;21115;-81
2023/08/03 01:50:17;;;;;;;0.98;0.78;;;22.20;99.90;;;;;;1917993;73;21548;-79
2023/08/03 01:53:08;;;;;;;2.58;0.90;;;22.20;99.90;;;;;;1927232;73;21166;-79
2023/08/03 01:56:01;;;;;;;1.45;0.90;;;21.90;99.90;;;;;;1927430;73;21213;-79
2023/08/03 01:58:52;;;;;;;2.05;0.85;;;21.50;99.90;;;;;;1922820;73;21549;-80
2023/08/03 02:01:43;;;;;;;1.52;0.80;;;21.30;99.90;;;;;;1925335;73;21059;-80
2023/08/03 02:04:35;;;;;;;3.15;1.15;;;21.00;99.90;;;;;;1937704;73;21140;-80
2023/08/03 02:07:46;;;;;;;1.67;0.80;;;20.90;99.90;;;;;;1917952;73;21116;-80
2023/08/03 02:10:37;;;;;;;1.92;0.82;;;20.80;99.90;;;;;;1938509;73;21616;-80
2023/08/03 02:16:09;;;;;;;2.02;1.02;;;20.70;99.90;;;;;;1945034;72;22196;-79
2023/08/03 02:19:01;;;;;;;3.10;1.07;;;20.70;99.90;;;;;;1906410;75;21659;-79
2023/08/03 02:21:52;;;;;;;3.90;0.95;;;20.60;99.90;;;;;;1867416;75;21229;-79
2023/08/03 02:24:43;;;;;;;1.52;0.72;;;20.50;99.90;;;;;;1912384;75;21045;-79
2023/08/03 02:27:34;;;;;;;1.42;1.00;;;20.50;99.90;;;;;;1915777;75;21099;-79
2023/08/03 02:30:25;;;;;;;3.72;1.27;;;20.50;99.90;;;;;;1900606;75;21140;-78
2023/08/03 02:35:56;;;;;;;2.05;0.85;;;20.50;99.90;;;;;;1949984;72;22181;-79
2023/08/03 02:38:47;;;;;;;1.82;0.90;;;20.60;99.90;;;;;;1907714;74;21098;-80
2023/08/03 02:41:39;;;;;;;2.47;0.93;;;20.70;99.90;;;;;;1903059;75;21159;-79
2023/08/03 02:44:31;;;;;;;3.58;1.20;;;20.80;99.90;;;;;;1905092;75;21114;-79
2023/08/03 02:47:23;;;;;;;4.12;1.00;;;20.80;99.90;;;;;;1898986;75;21039;-79
2023/08/03 02:50:15;;;;;;;7.17;1.00;;;20.70;99.90;;;;;;1871384;75;21068;-79
2023/08/03 02:53:06;;;;;;;4.95;1.00;;;20.70;99.90;;;;;;1894539;75;21102;-79
2023/08/03 02:55:58;;;;;;;2.72;1.20;;;20.70;99.90;;;;;;1884332;75;21518;-81
2023/08/03 02:58:51;;;;;;;4.30;1.10;;;20.60;99.90;;;;;;1896419;75;21094;-80
2023/08/03 03:01:44;;;;;;;1.77;1.02;;;20.50;99.90;;;;;;1894296;75;21468;-80
2023/08/03 03:04:35;;;;;;;3.15;0.95;;;20.50;99.90;;;;;;1885097;75;21098;-80
2023/08/03 03:07:27;;;;;;;3.60;1.17;;;20.50;99.90;;;;;;1884809;75;21093;-80
2023/08/03 03:10:18;;;;;;;3.35;1.32;;;20.70;99.90;;;;;;1906719;75;21145;-80
2023/08/03 03:13:10;;;;;;;4.30;1.50;;;20.70;99.90;;;;;;1898330;75;21086;-79
2023/08/03 03:16:02;;;;;;;4.70;1.30;;;20.70;99.90;;;;;;1890731;75;21582;-81
2023/08/03 03:18:54;;;;;;;5.08;1.20;;;20.60;99.90;;;;;;1900022;75;21078;-80
2023/08/03 03:21:46;;;;;;;3.70;1.20;;;20.90;99.90;;;;;;1893348;75;21099;-80
2023/08/03 03:27:16;;;;;;;4.50;1.00;;;20.80;99.90;;;;;;1936874;72;22221;-79
2023/08/03 03:30:10;;;;;;;3.77;1.40;;;21.20;99.90;;;;;;1903929;75;21534;-78
2023/08/03 03:33:02;;;;;;;5.03;1.50;;;21.30;99.90;;;;;;1916890;75;21102;-78
2023/08/03 03:35:55;;;;;;;3.40;1.10;;;21.30;99.90;;;;;;1908597;75;21089;-78
2023/08/03 03:38:46;;;;;;;3.62;1.00;;;21.30;99.90;;;;;;1907164;75;21107;-79
2023/08/03 03:41:38;;;;;;;2.85;0.93;;;21.30;99.90;;;;;;1913922;75;21139;-79
2023/08/03 03:44:30;;;;;;;2.75;1.20;;;21.20;99.90;;;;;;1904857;75;21202;-78
2023/08/03 03:50:01;;;;;;;3.52;1.00;;;21.30;99.90;;;;;;1927073;72;22232;-78
2023/08/03 03:52:53;;;;;;;3.50;1.27;;;21.10;99.90;;;;;;1908428;75;21051;-78
2023/08/03 03:55:45;;;;;;;4.15;1.07;;;21.00;99.90;;;;;;1890878;75;21099;-79
2023/08/03 03:58:37;;;;;;;3.98;1.22;;;21.00;99.90;;;;;;1912744;74;21192;-78
2023/08/03 04:01:29;;;;;;;3.77;1.15;;;20.90;99.90;;;;;;1896911;75;21100;-79
2023/08/03 04:04:21;;;;;;;2.92;1.15;;;20.80;99.90;;;;;;1899297;75;21157;-78
2023/08/03 04:07:12;;;;;;;3.65;1.00;;;20.70;99.90;;;;;;1905889;75;21110;-78
2023/08/03 04:10:04;;;;;;;3.75;1.40;;;20.60;99.90;;;;;;1894654;75;21142;-78
2023/08/03 04:12:55;;;;;;;3.08;0.90;;;20.60;99.90;;;;;;1892314;75;21231;-78
2023/08/03 04:15:47;;;;;;;5.17;1.22;;;20.60;99.90;;;;;;1901838;75;21083;-79
2023/08/03 04:18:40;;;;;;;3.27;0.93;;;20.60;99.90;;;;;;1884950;75;21163;-78
2023/08/03 04:21:31;;;;;;;5.05;1.05;;;20.70;99.90;;;;;;1898348;75;21125;-78
2023/08/03 04:27:02;;;;;;;2.70;1.20;;;20.70;99.90;;;;;;1941363;72;22193;-78
2023/08/03 04:29:54;;;;;;;3.60;1.37;;;20.60;99.90;;;;;;1905757;75;21138;-78
2023/08/03 04:35:30;;;;;;;3.85;1.45;;;20.50;99.90;;;;;;1954936;72;22523;-78
2023/08/03 04:38:22;;;;;;;2.22;1.20;;;20.60;99.90;;;;;;1916962;73;21111;-78
2023/08/03 04:41:16;;;;;;;3.60;1.35;;;20.50;99.90;;;;;;1938175;73;21055;-78
2023/08/03 04:44:09;;;;;;;3.70;1.22;;;20.40;99.90;;;;;;1927847;73;21198;-77
2023/08/03 04:47:01;;;;;;;2.30;0.98;;;20.40;99.90;;;;;;1929433;73;21103;-78
2023/08/03 04:49:52;;;;;;;2.87;1.15;;;20.40;99.90;;;;;;1929100;73;21081;-79
2023/08/03 04:52:43;;;;;;;4.80;1.50;;;20.40;99.90;;;;;;1926628;73;21123;-78
2023/08/03 04:55:36;;;;;;;4.42;1.27;;;20.30;99.90;;;;;;1934196;73;21655;-78
2023/08/03 04:58:27;;;;;;;3.55;1.00;;;20.30;99.90;;;;;;1901874;74;21180;-78
2023/08/03 05:01:19;;;;;;;2.08;1.10;;;20.30;99.90;;;;;;1861596;76;21063;-78
2023/08/03 05:04:11;;;;;;;3.95;1.35;;;20.20;99.90;;;;;;1916093;73;21569;-78
2023/08/03 05:07:02;;;;;;;2.72;1.20;;;20.20;99.90;;;;;;1934952;73;21153;-79
2023/08/03 05:09:54;;;;;;;3.52;1.57;;;20.10;99.90;;;;;;1904738;75;21161;-79
2023/08/03 05:15:25;;;;;;;3.92;1.60;;;20.20;99.90;;;;;;1937761;72;22259;-78
2023/08/03 05:18:16;;;;;;;4.25;1.25;;;20.20;99.90;;;;;;1920167;73;21130;-78
2023/08/03 05:21:07;;;;;;;4.40;1.10;;;20.20;99.90;;;;;;1899517;73;21105;-78
2023/08/03 05:23:58;;;;;;;4.35;1.40;;;20.10;99.90;;;;;;1917295;73;21138;-78
2023/08/03 05:26:49;;;;;;;3.67;1.15;;;20.00;99.90;;;;;;1905059;74;21174;-78
2023/08/03 05:32:19;;;;;;;3.55;1.22;;;19.80;99.90;;;;;;1933468;72;22380;-78
2023/08/03 05:35:12;;;;;;;6.87;1.32;;;19.70;99.90;;;;;;1899856;74;21197;-78
2023/08/03 05:40:42;;;;;;;5.62;1.50;;;19.70;99.90;;;;;;1950106;72;22220;-83
2023/08/03 05:46:16;;;;;;;5.58;1.52;;;19.80;99.90;;;;;;1942485;72;22221;-82
2023/08/03 05:49:08;;;;;;;5.53;0.98;;;19.70;99.90;;;;;;1902062;75;21102;-82
2023/08/03 05:52:00;;;;;;;5.22;1.45;;;19.70;99.90;;;;;;1898191;75;21059;-82
2023/08/03 05:54:53;;;;;;;2.90;1.00;;;19.60;99.90;;;;;;1890115;75;21063;-82
2023/08/03 05:57:45;;;;;;;4.70;1.40;;;19.60;99.90;;;;;;1852453;76;21175;-82
2023/08/03 06:00:37;;;;;;;5.70;1.70;;;19.70;99.90;;;;;;1895339;75;21204;-82
2023/08/03 06:03:28;;;;;;;4.08;1.22;;;19.80;99.90;;;;;;1901139;75;21085;-84
2023/08/03 06:06:21;;;;;;;5.92;1.30;;;19.80;99.90;;;;;;1915052;75;21040;-84
2023/08/03 06:09:13;;;;;;;4.08;1.50;;;19.80;99.90;;;;;;1897648;75;21117;-84
2023/08/03 06:12:07;;;;;;;5.28;1.37;;;19.70;99.90;;;;;;1890430;75;21122;-84
2023/08/03 06:14:58;;;;;;;6.28;1.20;;;19.70;99.90;;;;;;1891710;75;21067;-85
2023/08/03 06:17:50;;;;;;;4.40;1.30;;;19.80;99.90;;;;;;1885797;75;21112;-85
2023/08/03 06:20:44;;;;;;;3.15;1.37;;;19.80;99.90;;;;;;1899685;75;21160;-85
2023/08/03 06:23:37;;;;;;;4.00;1.35;;;20.00;99.90;;;;;;1885349;75;21568;-85
2023/08/03 06:26:31;;;;;;;5.10;1.50;;;20.10;99.90;;;;;;1892838;75;21094;-85
2023/08/03 06:29:23;;;;;;;4.37;1.62;;;20.20;99.90;;;;;;1887309;75;21125;-84
2023/08/03 06:32:20;;;;;;;3.77;1.20;;;20.10;99.90;;;;;;1890844;75;21183;-84
2023/08/03 06:35:26;;;;;;;5.03;1.57;;;20.10;99.90;;;;;;1896758;75;21106;-85
2023/08/03 06:40:56;;;;;;;4.87;1.30;;;20.10;99.90;;;;;;1931882;72;22289;-84
2023/08/03 06:43:47;;;;;;;4.10;1.30;;;20.10;99.90;;;;;;1910759;75;21175;-84
2023/08/03 06:46:39;;;;;;;6.15;1.22;;;20.10;99.90;;;;;;1916912;75;21221;-84
2023/08/03 06:52:10;;;;;;;5.58;1.30;;;20.10;99.90;;;;;;1947952;72;22288;-83
2023/08/03 06:57:40;;;;;;;3.52;1.00;;;20.20;99.90;;;;;;1946361;72;22168;-84
2023/08/03 07:00:31;;;;;;;2.33;1.02;;;20.30;99.90;;;;;;1926108;73;21177;-85
2023/08/03 07:03:22;;;;;;;4.05;1.30;;;20.40;99.90;;;;;;1916915;75;21087;-85
2023/08/03 07:06:13;;;;;;;3.00;1.17;;;20.50;99.90;;;;;;1917008;75;21101;-85
2023/08/03 07:09:05;;;;;;;4.58;1.00;;;20.70;99.90;;;;;;1917061;75;21039;-85
2023/08/03 07:11:56;;;;;;;4.35;1.02;;;20.70;99.90;;;;;;1917015;75;21146;-85
2023/08/03 07:14:48;;;;;;;2.45;0.90;;;20.70;99.90;;;;;;1917097;75;21110;-84
2023/08/03 07:20:18;;;;;;;4.83;1.30;;;20.80;99.90;;;;;;1952010;72;22751;-84
2023/08/03 07:23:10;;;;;;;6.30;1.57;;;20.70;99.90;;;;;;1901707;74;21141;-85
2023/08/03 07:26:01;;;;;;;4.28;1.17;;;20.70;99.90;;;;;;1885110;75;21190;-85
2023/08/03 07:31:31;;;;;;;3.72;1.17;;;20.80;99.90;;;;;;1939790;72;22251;-84
2023/08/03 07:34:23;;;;;;;2.85;1.15;;;20.90;99.90;;;;;;1910297;75;21813;-84
2023/08/03 07:37:14;;;;;;;5.05;1.20;;;21.00;99.90;;;;;;1905654;75;21153;-86
2023/08/03 07:40:08;;;;;;;3.92;1.10;;;21.10;99.90;;;;;;1900980;75;21067;-85
2023/08/03 07:42:59;;;;;;;2.72;1.10;;;21.20;99.90;;;;;;1906645;75;21137;-85
2023/08/03 07:45:50;;;;;;;3.87;1.27;;;21.30;99.90;;;;;;1899279;75;21183;-84
2023/08/03 07:48:41;;;;;;;4.97;1.20;;;21.60;99.90;;;;;;1910846;75;21149;-85
2023/08/03 07:51:33;;;;;;;3.47;0.93;;;21.50;99.90;;;;;;1913137;74;21147;-85
2023/08/03 07:57:06;;;;;;;2.52;0.80;;;21.70;99.90;;;;;;1940886;72;22192;-85
2023/08/03 07:59:57;;;;;;;3.08;0.93;;;21.80;99.90;;;;;;1906753;75;21102;-84
2023/08/03 08:05:31;;;;;;;4.08;0.82;;;21.90;99.90;;;;;;1941546;72;22183;-84
2023/08/03 08:08:22;;;;;;;4.47;1.07;;;22.00;99.90;;;;;;1918350;73;22149;-84
2023/08/03 08:11:15;;;;;;;2.45;0.80;;;22.10;99.90;;;;;;1932720;73;21090;-84
2023/08/03 08:14:06;;;;;;;4.33;1.00;;;22.30;99.90;;;;;;1942849;73;21171;-84
2023/08/03 08:16:57;;;;;;;3.70;1.22;;;22.40;99.90;;;;;;1925926;74;21183;-85
2023/08/03 08:22:29;;;;;;;3.35;1.20;;;22.60;99.90;;;;;;1947045;72;22133;-84
2023/08/03 08:25:20;;;;;;;2.60;0.85;;;22.60;99.90;;;;;;1900973;75;21094;-84
2023/08/03 08:28:12;;;;;;;2.15;0.95;;;22.70;99.90;;;;;;1902734;75;21130;-85
2023/08/03 08:31:03;;;;;;;3.50;1.05;;;22.70;99.90;;;;;;1909991;75;21130;-85
2023/08/03 08:33:55;;;;;;;0.82;0.30;;;22.80;99.90;;;;;;1906227;75;21207;-85
2023/08/03 08:36:47;;;;;;;0.50;0.23;;;22.90;99.90;;;;;;1909429;75;21571;-85
2023/08/03 08:39:38;;;;;;;1.55;0.40;;;22.90;99.90;;;;;;1899506;75;21437;-84
2023/08/03 08:45:09;;;;;;;0.93;0.30;;;23.10;99.90;;;;;;1927241;72;22180;-84
2023/08/03 08:50:42;;;;;;;1.70;0.50;;;23.20;99.90;;;;;;1945439;72;22149;-84
2023/08/03 08:53:35;;;;;;;0.80;0.40;;;23.20;99.90;;;;;;1893651;75;21067;-84
2023/08/03 08:59:13;;;;;;;1.13;0.40;;;23.30;99.90;;;;;;1920433;72;29838;-84
2023/08/03 09:02:06;;;;;;;0.65;0.30;;;23.40;99.90;;;;;;1894782;75;21225;-84
2023/08/03 09:04:58;;;;;;;0.88;0.33;;;23.50;99.90;;;;;;1894064;75;21250;-85
2023/08/03 09:10:34;;;;;;;1.95;0.40;;;23.50;99.90;;;;;;1963431;72;22153;-85
2023/08/03 09:16:21;;;;;;;0.43;0.20;;;23.70;99.90;;;;;;1918979;72;28450;-84
2023/08/03 09:22:02;;;;;;;0.98;0.20;;;23.80;99.90;;;;;;1931647;72;22236;-85
2023/08/03 09:27:49;;;;;;;0.70;0.20;;;23.80;99.30;;;;;;1932717;72;22200;-85
2023/08/03 09:30:50;;;;;;;0.95;0.23;;;23.90;99.90;;;;;;1896276;75;21126;-85
2023/08/03 09:33:43;;;;;;;1.37;0.25;;;23.90;99.00;;;;;;1900914;75;21211;-86
2023/08/03 09:36:34;;;;;;;1.32;0.20;;;23.90;99.70;;;;;;1904701;75;21122;-85
2023/08/03 09:39:29;;;;;;;0.47;0.20;;;24.00;99.00;;;;;;1903876;75;21079;-87
2023/08/03 09:42:23;;;;;;;0.37;0.10;;;24.00;99.30;;;;;;1885816;75;21116;-84
2023/08/03 09:47:58;;;;;;;0.70;0.23;;;23.90;99.30;;;;;;1961314;72;22208;-84
2023/08/03 09:50:52;;;;;;;0.20;0.10;;;23.90;99.30;;;;;;1918910;73;21167;-83
2023/08/03 09:53:45;;;;;;;0.28;0.10;;;23.90;98.40;;;;;;1917234;75;21300;-84
2023/08/03 09:56:40;;;;;;;0.28;0.10;;;23.90;97.60;;;;;;1922209;73;21196;-84
2023/08/03 09:59:33;;;;;;;0.40;0.10;;;24.00;97.00;;;;;;1916846;75;21153;-84
2023/08/03 10:02:27;;;;;;;0.42;0.10;;;24.00;96.70;;;;;;1917126;73;21130;-84
2023/08/03 10:05:21;;;;;;;0.13;0.10;;;24.10;96.60;;;;;;1917350;73;21097;-84
2023/08/03 10:08:17;;;;;;;0.62;0.10;;;24.20;97.00;;;;;;1918014;73;21168;-84
2023/08/03 10:11:12;;;;;;;0.20;0.10;;;24.20;96.80;;;;;;1922374;73;21108;-84
2023/08/03 10:16:45;;;;;;;0.20;0.10;;;24.30;95.30;;;;;;1920418;72;22132;-86
2023/08/03 10:19:38;;;;;;;0.95;0.20;;;24.40;94.30;;;;;;1895754;75;21867;-84
2023/08/03 10:22:30;;;;;;;0.68;0.20;;;24.40;94.30;;;;;;1883450;75;21094;-84
2023/08/03 10:25:22;;;;;;;0.20;0.20;;;24.40;94.30;;;;;;1884122;76;21109;-85
2023/08/03 10:28:13;;;;;;;0.57;0.25;;;24.40;94.30;;;;;;1886950;75;21160;-87
2023/08/03 10:31:14;;;;;;;0.80;0.20;;;24.50;94.30;;;;;;1884385;75;21207;-84
2023/08/03 10:34:12;;;;;;;0.40;0.20;;;24.50;94.30;;;;;;1903147;74;21168;-84
2023/08/03 10:37:04;;;;;;;0.90;0.20;;;24.60;94.20;;;;;;1914571;75;21121;-86
2023/08/03 10:39:59;;;;;;;1.00;0.33;;;24.60;93.50;;;;;;1889657;75;21170;-85
2023/08/03 10:45:36;;;;;;;1.37;0.30;;;24.80;94.10;;;;;;1943180;72;22172;-86
2023/08/03 10:51:08;;;;;;;0.45;0.20;;;24.60;95.60;;;;;;1948629;72;22187;-85
2023/08/03 10:54:00;;;;;;;1.92;0.40;;;24.60;95.30;;;;;;1924418;73;21050;-85
2023/08/03 10:57:04;;;;;;;0.80;0.30;;;24.70;95.20;;;;;;1939057;73;21120;-86
2023/08/03 10:59:58;;;;;;;0.72;0.40;;;24.70;94.80;;;;;;1900915;75;21534;-83
2023/08/03 11:05:27;;;;;;;2.12;0.53;;;24.80;95.00;;;;;;1943180;72;22169;-83
2023/08/03 11:08:20;;;;;;;0.35;0.20;;;24.90;95.30;;;;;;1927353;73;21164;-84
2023/08/03 11:11:13;;;;;;;1.22;0.30;;;24.90;95.20;;;;;;1922431;73;21509;-83
2023/08/03 11:14:06;;;;;;;0.98;0.40;;;24.90;94.90;;;;;;1926999;73;21496;-83
2023/08/03 11:16:57;;;;;;;1.60;0.40;;;25.00;94.80;;;;;;1922429;73;21254;-83
2023/08/03 11:19:48;;;;;;;0.75;0.30;;;25.00;95.10;;;;;;1916975;75;21212;-84
2023/08/03 11:22:39;;;;;;;1.07;0.40;;;25.10;93.70;;;;;;1933750;73;21129;-76
2023/08/03 11:25:31;;;;;;;1.15;0.30;;;25.10;93.50;;;;;;1917020;75;21213;-75
2023/08/03 11:28:23;;;;;;;1.70;0.40;;;25.20;94.10;;;;;;1923774;74;21051;-76
2023/08/03 11:31:18;;;;;;;0.37;0.20;;;25.30;94.20;;;;;;1916943;75;21060;-77
2023/08/03 11:34:10;;;;;;;1.87;0.30;;;25.30;92.70;;;;;;1921305;73;21159;-77
2023/08/03 11:37:01;;;;;;;1.35;0.65;;;25.30;93.80;;;;;;1917029;73;21106;-76
2023/08/03 11:39:53;;;;;;;1.40;0.42;;;25.30;94.00;;;;;;1917223;73;21176;-76
2023/08/03 11:42:46;;;;;;;3.05;0.40;;;25.50;93.70;;;;;;1939613;73;21063;-77
2023/08/03 11:45:37;;;;;;;1.75;0.40;;;25.60;94.10;;;;;;1880685;76;21168;-77
2023/08/03 11:48:30;;;;;;;0.70;0.30;;;25.70;94.40;;;;;;1917040;75;21163;-77
2023/08/03 11:51:22;;;;;;;2.30;0.57;;;25.60;94.50;;;;;;1917156;75;21127;-76
2023/08/03 11:54:16;;;;;;;1.42;0.45;;;25.60;93.90;;;;;;1926811;73;21171;-77
2023/08/03 12:00:19;;;;;;;1.77;0.47;;;25.60;94.20;;;;;;1917233;75;21208;-76
2023/08/03 12:03:11;;;;;;;1.80;0.50;;;25.40;94.70;;;;;;1917107;75;21552;-76
2023/08/03 12:06:08;;;;;;;1.62;0.50;;;25.40;95.00;;;;;;1934275;73;21176;-76
2023/08/03 12:09:01;;;;;;;1.98;0.42;;;25.40;94.70;;;;;;1904934;75;21095;-76
2023/08/03 12:11:59;;;;;;;1.02;0.47;;;25.50;94.00;;;;;;1904708;75;21095;-76
2023/08/03 12:14:50;;;;;;;1.27;0.42;;;25.50;94.50;;;;;;1908911;74;21125;-76
2023/08/03 12:17:42;;;;;;;2.77;0.47;;;25.50;94.50;;;;;;1915833;74;21673;-76
2023/08/03 12:20:33;;;;;;;3.60;0.60;;;25.50;94.70;;;;;;1932663;73;21225;-76
2023/08/03 12:23:26;;;;;;;2.37;0.55;;;25.50;94.70;;;;;;1916636;73;21058;-76
2023/08/03 12:26:18;;;;;;;1.27;0.50;;;25.50;95.50;;;;;;1922005;73;21102;-76
2023/08/03 12:29:09;;;;;;;2.30;0.70;;;25.60;95.90;;;;;;1914619;74;21180;-77
2023/08/03 12:32:01;;;;;;;2.47;0.53;;;25.70;95.60;;;;;;1904069;75;21083;-78
2023/08/03 12:34:53;;;;;;;2.12;0.60;;;25.50;95.40;;;;;;1904189;75;21129;-76
2023/08/03 12:37:46;;;;;;;2.72;0.72;;;25.50;96.20;;;;;;1904121;75;21137;-76
2023/08/03 12:40:38;;;;;;;3.15;0.57;;;25.70;96.40;;;;;;1916274;75;21114;-77
2023/08/03 12:43:29;;;;;;;1.35;0.70;;;25.60;94.80;;;;;;1916115;75;21102;-76
2023/08/03 12:46:20;;;;;;;1.17;0.40;;;25.50;94.40;;;;;;1903372;75;21106;-76
2023/08/03 12:49:15;;;;;;;1.57;0.60;;;25.50;94.20;;;;;;1868969;77;21208;-75
2023/08/03 12:52:08;;;;;;;1.82;0.50;;;25.70;94.60;;;;;;1880496;76;21059;-75
2023/08/03 12:54:59;;;;;;;0.98;0.40;;;25.80;93.60;;;;;;1903937;75;21141;-75
2023/08/03 12:57:51;;;;;;;2.10;0.70;;;25.90;93.40;;;;;;1916263;75;21158;-77
2023/08/03 13:00:44;;;;;;;2.83;0.78;;;25.90;93.50;;;;;;1916471;75;21140;-74
2023/08/03 13:03:37;;;;;;;2.83;0.53;;;25.90;93.80;;;;;;1920998;73;21149;-77
2023/08/03 13:06:29;;;;;;;1.67;0.55;;;26.10;93.00;;;;;;1913708;74;21147;-76
2023/08/03 13:09:21;;;;;;;3.15;0.60;;;26.10;91.70;;;;;;1850760;77;21110;-76
2023/08/03 13:12:14;;;;;;;2.05;1.00;;;26.10;91.70;;;;;;1909579;74;21102;-76
2023/08/03 13:15:11;;;;;;;2.25;0.55;;;26.20;91.30;;;;;;1921572;74;21062;-76
2023/08/03 13:18:03;;;;;;;1.82;0.50;;;26.30;91.50;;;;;;1918124;74;21175;-76
2023/08/03 13:20:54;;;;;;;1.20;0.50;;;26.40;90.40;;;;;;1915850;74;21093;-76
2023/08/03 13:23:47;;;;;;;2.08;0.60;;;26.40;90.30;;;;;;1912194;74;21106;-76
2023/08/03 13:26:39;;;;;;;0.93;0.50;;;26.60;88.90;;;;;;1928485;74;21168;-76
2023/08/03 13:29:30;;;;;;;0.80;0.40;;;26.70;88.00;;;;;;1908786;74;21205;-76
2023/08/03 13:32:22;;;;;;;1.82;0.50;;;26.70;88.20;;;;;;1901948;75;21114;-76
2023/08/03 13:35:14;;;;;;;1.15;0.40;;;26.60;87.90;;;;;;1913619;74;21098;-76
2023/08/03 13:38:06;;;;;;;1.62;0.40;;;26.60;88.20;;;;;;1861258;76;21092;-76
2023/08/03 13:41:00;;;;;;;0.85;0.47;;;26.60;88.10;;;;;;1910939;74;21102;-76
2023/08/03 13:43:51;;;;;;;0.85;0.30;;;26.80;85.90;;;;;;1909202;74;21151;-76
2023/08/03 13:46:43;;;;;;;0.90;0.50;;;26.90;84.70;;;;;;1912526;74;21527;-78
2023/08/03 13:49:36;;;;;;;0.70;0.28;;;27.00;82.60;;;;;;1911079;74;21107;-77
2023/08/03 13:52:27;;;;;;;1.75;0.40;;;27.00;82.10;;;;;;1903847;74;21110;-77
2023/08/03 13:55:19;;;;;;;0.80;0.30;;;27.00;82.80;;;;;;1918245;74;21201;-77
2023/08/03 13:58:10;;;;;;;0.93;0.50;;;27.00;80.70;;;;;;1921480;74;21060;-76
2023/08/03 14:01:03;;;;;;;1.27;0.30;;;27.10;79.50;;;;;;1912521;74;21197;-76
2023/08/03 14:03:56;;;;;;;1.00;0.30;;;27.40;79.10;;;;;;1909631;74;21062;-77
2023/08/03 14:06:48;;;;;;;1.72;0.50;;;27.60;80.80;;;;;;1907418;74;21191;-77
2023/08/03 14:09:43;;;;;;;1.30;0.40;;;27.60;80.10;;;;;;1938513;73;21150;-76
2023/08/03 14:12:34;;;;;;;0.50;0.20;;;27.90;78.90;;;;;;1921039;74;21142;-77
2023/08/03 14:15:27;;;;;;;0.88;0.30;;;28.20;77.10;;;;;;1916401;74;21519;-76
2023/08/03 14:18:20;;;;;;;1.00;0.37;;;28.40;75.80;;;;;;1915026;74;21125;-77
2023/08/03 14:21:13;;;;;;;0.60;0.40;;;28.80;75.90;;;;;;1925444;73;21496;-77
2023/08/03 14:24:06;;;;;;;0.98;0.20;;;29.00;74.30;;;;;;1916041;75;21137;-77
2023/08/03 14:26:58;;;;;;;0.55;0.30;;;29.30;74.20;;;;;;1916209;74;21168;-77
2023/08/03 14:29:50;;;;;;;0.60;0.30;;;29.40;73.70;;;;;;1911561;74;21119;-77
2023/08/03 14:32:48;;;;;;;0.50;0.30;;;29.40;71.80;;;;;;1947114;73;21066;-77
2023/08/03 14:35:51;;;;;;;1.20;0.30;;;29.40;71.30;;;;;;1918537;73;21149;-76
2023/08/03 14:38:43;;;;;;;0.55;0.23;;;29.30;70.80;;;;;;1930598;73;21646;-77
2023/08/03 14:41:35;;;;;;;1.25;0.40;;;29.30;70.80;;;;;;1916538;75;21189;-76
2023/08/03 14:44:27;;;;;;;0.42;0.30;;;29.50;69.70;;;;;;1916397;75;21156;-76
2023/08/03 14:47:20;;;;;;;0.95;0.30;;;29.80;68.40;;;;;;1904146;75;21150;-77
2023/08/03 14:50:12;;;;;;;0.40;0.35;;;29.90;68.00;;;;;;1904216;75;21129;-76
2023/08/03 14:53:05;;;;;;;0.93;0.30;;;30.00;67.20;;;;;;1904180;75;21115;-76
2023/08/03 14:56:00;;;;;;;0.68;0.30;;;30.00;66.90;;;;;;1914836;74;21184;-76
2023/08/03 14:58:53;;;;;;;1.75;0.40;;;30.00;67.00;;;;;;1908551;74;21111;-77
2023/08/03 15:01:44;;;;;;;0.93;0.37;;;30.10;66.60;;;;;;1905627;74;21114;-76
2023/08/03 15:04:36;;;;;;;0.95;0.30;;;30.10;65.20;;;;;;1931152;73;21498;-77
2023/08/03 15:07:29;;;;;;;0.68;0.47;;;30.20;64.90;;;;;;1931864;73;21562;-76
2023/08/03 15:10:20;;;;;;;0.40;0.30;;;30.30;64.80;;;;;;1929127;73;21116;-76
2023/08/03 15:13:12;;;;;;;0.80;0.50;;;30.50;63.70;;;;;;1925889;74;21098;-77
2023/08/03 15:16:11;;;;;;;1.47;0.45;;;30.70;64.00;;;;;;1925917;74;21187;-77
2023/08/03 15:19:04;;;;;;;0.60;0.35;;;30.70;63.50;;;;;;1925845;74;21102;-76
2023/08/03 15:21:56;;;;;;;0.70;0.35;;;30.60;63.00;;;;;;1925890;74;21132;-77
2023/08/03 15:24:49;;;;;;;1.47;0.50;;;30.60;63.80;;;;;;1925893;74;21098;-77
2023/08/03 15:27:43;;;;;;;0.55;0.28;;;30.70;63.10;;;;;;1925770;74;21633;-77
2023/08/03 15:30:35;;;;;;;0.75;0.40;;;30.80;62.80;;;;;;1925852;74;21106;-77
2023/08/03 15:33:28;;;;;;;0.95;0.40;;;31.20;61.80;;;;;;1934651;74;21871;-78
2023/08/03 15:36:24;;;;;;;0.65;0.40;;;31.10;61.80;;;;;;1925883;74;21164;-77
2023/08/03 15:39:17;;;;;;;0.70;0.40;;;30.60;62.10;;;;;;1949173;73;21222;-77
2023/08/03 15:42:10;;;;;;;0.70;0.42;;;30.70;61.80;;;;;;1925909;74;21109;-77
2023/08/03 15:45:03;;;;;;;0.82;0.30;;;30.90;59.40;;;;;;1926096;74;21188;-77
2023/08/03 15:47:56;;;;;;;1.15;0.40;;;31.40;60.70;;;;;;1925672;74;21641;-76
2023/08/03 15:50:48;;;;;;;0.70;0.30;;;31.30;60.60;;;;;;1948518;73;21130;-77
2023/08/03 15:56:22;;;;;;;0.75;0.40;;;31.00;61.10;;;;;;1954657;72;22823;-77
2023/08/03 15:59:13;;;;;;;0.37;0.28;;;30.50;61.50;;;;;;1894963;75;21129;-76
2023/08/03 16:02:05;;;;;;;0.28;0.20;;;30.90;60.80;;;;;;1889358;75;21102;-77
2023/08/03 16:04:57;;;;;;;0.50;0.30;;;31.70;59.50;;;;;;1884894;75;21075;-76
2023/08/03 16:07:48;;;;;;;1.05;0.30;;;31.40;58.90;;;;;;1899354;75;21180;-76
2023/08/03 16:10:40;;;;;;;0.98;0.40;;;31.70;59.00;;;;;;1896423;75;21608;-76
2023/08/03 16:13:32;;;;;;;0.93;0.40;;;31.90;59.30;;;;;;1894808;75;21121;-77
2023/08/03 16:16:24;;;;;;;0.90;0.40;;;32.00;58.70;;;;;;1894711;75;21139;-76
2023/08/03 16:19:15;;;;;;;1.12;0.30;;;32.00;58.50;;;;;;1897881;75;21631;-76
2023/08/03 16:22:07;;;;;;;1.05;0.37;;;31.80;57.80;;;;;;1897912;75;21051;-77
2023/08/03 16:24:58;;;;;;;0.45;0.25;;;32.00;57.50;;;;;;1894972;75;21165;-76
2023/08/03 16:27:50;;;;;;;1.00;0.50;;;32.00;58.00;;;;;;1894962;75;21328;-76
2023/08/03 16:30:41;;;;;;;0.68;0.30;;;32.00;58.20;;;;;;1896979;75;21054;-76
2023/08/03 16:33:33;;;;;;;0.75;0.30;;;31.60;58.90;;;;;;1883942;75;21146;-76
2023/08/03 16:36:26;;;;;;;0.47;0.40;;;31.50;58.90;;;;;;1884287;75;21110;-77
2023/08/03 16:39:17;;;;;;;0.57;0.40;;;31.30;58.80;;;;;;1889443;75;21110;-76
2023/08/03 16:42:09;;;;;;;1.32;0.40;;;31.30;59.10;;;;;;1895313;75;21584;-76
2023/08/03 16:45:03;;;;;;;1.85;0.40;;;31.60;58.00;;;;;;1900026;75;21134;-77
2023/08/03 16:47:54;;;;;;;2.55;0.40;;;31.50;58.20;;;;;;1896422;75;21168;-77
2023/08/03 16:50:45;;;;;;;1.07;0.40;;;31.40;57.40;;;;;;1895230;75;21575;-76